METAR Data
IDs: Format: Raw Decoded Include TAF

Data at: 1349 UTC 21 Nov 2018

METAR for:PAAK (Atka Arpt, AK, US)
Text:PAAK 211256Z AUTO 07007KT 10SM CLR 03/01 A2995 RMK AO2 SLP143 T00280006 PNO $
Temperature: 2.8°C ( 37°F)
Dewpoint: 0.6°C ( 33°F) [RH = 85%]
Pressure (altimeter):29.95 inches Hg (1014.3 mb) [Sea level pressure: 1014.3 mb]
Winds:from the ENE (70 degrees) at 8 MPH (7 knots; 3.6 m/s)
Visibility:10 or more sm (16+ km)
Ceiling:at least 12,000 feet AGL
Clouds:sky clear below 12,000 feet AGL
QC Flag:automated observation with no human augmentation; SOME DATA ABOVE MAY BE INACCURATE!!!"$" is an indication the sensor requires maintenance.
Text:PAAK 211156Z AUTO 00000KT 10SM FEW027 SCT034 02/M01 A2997 RMK AO2 SLP150 6//// 7//// T00171011 10033 21011 56021 FZRANO PNO $
Temperature: 1.7°C ( 35°F)
Dewpoint: -1.1°C ( 30°F) [RH = 82%]
Pressure (altimeter):29.97 inches Hg (1015.0 mb) [Sea level pressure: 1015.0 mb]
Winds:calm
Visibility:10 or more sm (16+ km)
Ceiling:at least 12,000 feet AGL
Clouds: few clouds at 2700 feet AGL, scattered clouds at 3400 feet AGL
QC Flag:automated observation with no human augmentation; SOME DATA ABOVE MAY BE INACCURATE!!!"$" is an indication the sensor requires maintenance.
Text:PAAK 211056Z AUTO 00000KT 10SM OVC032 01/M02 A2999 RMK AO2 SLP158 T00111022 FZRANO PNO $
Temperature: 1.1°C ( 34°F)
Dewpoint: -2.2°C ( 28°F) [RH = 79%]
Pressure (altimeter):29.99 inches Hg (1015.7 mb) [Sea level pressure: 1015.8 mb]
Winds:calm
Visibility:10 or more sm (16+ km)
Ceiling:3200 feet AGL
Clouds: overcast cloud deck at 3200 feet AGL
QC Flag:automated observation with no human augmentation; SOME DATA ABOVE MAY BE INACCURATE!!!"$" is an indication the sensor requires maintenance.
Text:PAAK 210956Z AUTO 34004KT 10SM SCT034 M01/M02 A3000 RMK AO2 SLP161 T10061022 FZRANO PNO $
Temperature: -0.6°C ( 31°F)
Dewpoint: -2.2°C ( 28°F) [RH = 89%]
Pressure (altimeter):30.00 inches Hg (1016.0 mb) [Sea level pressure: 1016.1 mb]
Winds:from the NNW (340 degrees) at 5 MPH (4 knots; 2.1 m/s)
Visibility:10 or more sm (16+ km)
Ceiling:at least 12,000 feet AGL
Clouds: scattered clouds at 3400 feet AGL
QC Flag:automated observation with no human augmentation; SOME DATA ABOVE MAY BE INACCURATE!!!"$" is an indication the sensor requires maintenance.
Text:PAAK 210856Z AUTO 34003KT 10SM CLR 01/M03 A3003 RMK AO2 SLP171 6//// T00061028 400560000 56009 FZRANO PNO $
Temperature: 0.6°C ( 33°F)
Dewpoint: -2.8°C ( 27°F) [RH = 78%]
Pressure (altimeter):30.03 inches Hg (1017.0 mb) [Sea level pressure: 1017.1 mb]
Winds:from the NNW (340 degrees) at 3 MPH (3 knots; 1.5 m/s)
Visibility:10 or more sm (16+ km)
Ceiling:at least 12,000 feet AGL
Clouds:sky clear below 12,000 feet AGL
QC Flag:automated observation with no human augmentation; SOME DATA ABOVE MAY BE INACCURATE!!!"$" is an indication the sensor requires maintenance.
Text:PAAK 210656Z AUTO 00000KT 10SM OVC034 02/M02 A3004 RMK AO2 SLP175 T00221022 FZRANO PNO $
Temperature: 2.2°C ( 36°F)
Dewpoint: -2.2°C ( 28°F) [RH = 73%]
Pressure (altimeter):30.04 inches Hg (1017.4 mb) [Sea level pressure: 1017.5 mb]
Winds:calm
Visibility:10 or more sm (16+ km)
Ceiling:3400 feet AGL
Clouds: overcast cloud deck at 3400 feet AGL
QC Flag:automated observation with no human augmentation; SOME DATA ABOVE MAY BE INACCURATE!!!"$" is an indication the sensor requires maintenance.
Text:PAAK 210556Z AUTO 35003KT 10SM OVC034 03/M02 A3006 RMK AO2 SLP180 6//// T00281022 10056 20022 50001 PNO $
Temperature: 2.8°C ( 37°F)
Dewpoint: -2.2°C ( 28°F) [RH = 70%]
Pressure (altimeter):30.06 inches Hg (1018.0 mb) [Sea level pressure: 1018.0 mb]
Winds:from the N (350 degrees) at 3 MPH (3 knots; 1.5 m/s)
Visibility:10 or more sm (16+ km)
Ceiling:3400 feet AGL
Clouds: overcast cloud deck at 3400 feet AGL
QC Flag:automated observation with no human augmentation; SOME DATA ABOVE MAY BE INACCURATE!!!"$" is an indication the sensor requires maintenance.
Text:PAAK 210456Z AUTO 31005KT 10SM BKN032 02/M02 A3006 RMK AO2 SLP180 T00221022 FZRANO PNO $
Temperature: 2.2°C ( 36°F)
Dewpoint: -2.2°C ( 28°F) [RH = 73%]
Pressure (altimeter):30.06 inches Hg (1018.0 mb) [Sea level pressure: 1018.0 mb]
Winds:from the NW (310 degrees) at 6 MPH (5 knots; 2.6 m/s)
Visibility:10 or more sm (16+ km)
Ceiling:3200 feet AGL
Clouds: broken clouds at 3200 feet AGL
QC Flag:automated observation with no human augmentation; SOME DATA ABOVE MAY BE INACCURATE!!!"$" is an indication the sensor requires maintenance.
Text:PAAK 210356Z AUTO 30007KT 10SM CLR 02/M02 A3006 RMK AO2 SLP180 T00221022 FZRANO PNO $
Temperature: 2.2°C ( 36°F)
Dewpoint: -2.2°C ( 28°F) [RH = 73%]
Pressure (altimeter):30.06 inches Hg (1018.0 mb) [Sea level pressure: 1018.0 mb]
Winds:from the WNW (300 degrees) at 8 MPH (7 knots; 3.6 m/s)
Visibility:10 or more sm (16+ km)
Ceiling:at least 12,000 feet AGL
Clouds:sky clear below 12,000 feet AGL
QC Flag:automated observation with no human augmentation; SOME DATA ABOVE MAY BE INACCURATE!!!"$" is an indication the sensor requires maintenance.
Text:PAAK 210256Z AUTO 29005KT 10SM BKN032 04/M02 A3005 RMK AO2 SLP178 6//// T00391017 56007 PNO $
Temperature: 3.9°C ( 39°F)
Dewpoint: -1.7°C ( 29°F) [RH = 67%]
Pressure (altimeter):30.05 inches Hg (1017.7 mb) [Sea level pressure: 1017.8 mb]
Winds:from the WNW (290 degrees) at 6 MPH (5 knots; 2.6 m/s)
Visibility:10 or more sm (16+ km)
Ceiling:3200 feet AGL
Clouds: broken clouds at 3200 feet AGL
QC Flag:automated observation with no human augmentation; SOME DATA ABOVE MAY BE INACCURATE!!!"$" is an indication the sensor requires maintenance.
Text:PAAK 210156Z AUTO 35006KT 10SM OVC032 05/M01 A3006 RMK AO2 SLP180 T00501011 PNO $
Temperature: 5.0°C ( 41°F)
Dewpoint: -1.1°C ( 30°F) [RH = 65%]
Pressure (altimeter):30.06 inches Hg (1018.0 mb) [Sea level pressure: 1018.0 mb]
Winds:from the N (350 degrees) at 7 MPH (6 knots; 3.1 m/s)
Visibility:10 or more sm (16+ km)
Ceiling:3200 feet AGL
Clouds: overcast cloud deck at 3200 feet AGL
QC Flag:automated observation with no human augmentation; SOME DATA ABOVE MAY BE INACCURATE!!!"$" is an indication the sensor requires maintenance.